sensor_id;sensor_type;location;lat;lon;timestamp;pressure;altitude;pressure_sealevel;temperature;humidity
67434;BME280;54305;47.950;6.572;2023-04-15T00:02:14;93354.53;;;5.71;100.00
67434;BME280;54305;47.950;6.572;2023-04-15T00:04:42;93343.97;;;5.90;100.00
67434;BME280;54305;47.950;6.572;2023-04-15T00:07:08;93353.59;;;5.80;100.00
67434;BME280;54305;47.950;6.572;2023-04-15T00:09:33;93357.47;;;5.76;100.00
67434;BME280;54305;47.950;6.572;2023-04-15T00:11:58;93352.25;;;5.68;100.00
67434;BME280;54305;47.950;6.572;2023-04-15T00:14:23;93359.66;;;5.63;100.00
67434;BME280;54305;47.950;6.572;2023-04-15T00:16:50;93359.66;;;5.55;100.00
67434;BME280;54305;47.950;6.572;2023-04-15T00:19:20;93353.19;;;5.51;100.00
67434;BME280;54305;47.950;6.572;2023-04-15T00:21:45;93350.75;;;5.49;100.00
67434;BME280;54305;47.950;6.572;2023-04-15T00:24:10;93346.31;;;5.34;100.00
67434;BME280;54305;47.950;6.572;2023-04-15T00:26:35;93344.00;;;5.23;100.00
67434;BME280;54305;47.950;6.572;2023-04-15T00:29:01;93346.56;;;5.15;100.00
67434;BME280;54305;47.950;6.572;2023-04-15T00:31:26;93350.69;;;5.33;100.00
67434;BME280;54305;47.950;6.572;2023-04-15T00:33:51;93346.31;;;5.34;100.00
67434;BME280;54305;47.950;6.572;2023-04-15T00:36:17;93348.63;;;5.45;100.00
67434;BME280;54305;47.950;6.572;2023-04-15T00:38:42;93344.78;;;5.49;100.00
67434;BME280;54305;47.950;6.572;2023-04-15T00:41:08;93347.38;;;5.57;100.00
67434;BME280;54305;47.950;6.572;2023-04-15T00:43:34;93342.56;;;5.54;100.00
67434;BME280;54305;47.950;6.572;2023-04-15T00:45:59;93337.88;;;5.57;100.00
67434;BME280;54305;47.950;6.572;2023-04-15T00:48:26;93337.50;;;5.44;100.00
67434;BME280;54305;47.950;6.572;2023-04-15T00:50:51;93335.69;;;5.37;100.00
67434;BME280;54305;47.950;6.572;2023-04-15T00:53:17;93340.22;;;5.43;100.00
67434;BME280;54305;47.950;6.572;2023-04-15T00:55:42;93337.97;;;5.48;100.00
67434;BME280;54305;47.950;6.572;2023-04-15T00:58:07;93336.06;;;5.50;100.00
67434;BME280;54305;47.950;6.572;2023-04-15T01:00:33;93337.50;;;5.44;100.00
67434;BME280;54305;47.950;6.572;2023-04-15T01:02:58;93339.28;;;5.44;100.00
67434;BME280;54305;47.950;6.572;2023-04-15T01:05:23;93340.91;;;5.53;100.00
67434;BME280;54305;47.950;6.572;2023-04-15T01:07:49;93337.34;;;5.46;100.00
67434;BME280;54305;47.950;6.572;2023-04-15T01:10:14;93336.88;;;5.50;100.00
67434;BME280;54305;47.950;6.572;2023-04-15T01:12:39;93335.97;;;5.34;100.00
67434;BME280;54305;47.950;6.572;2023-04-15T01:15:05;93342.78;;;5.35;100.00
67434;BME280;54305;47.950;6.572;2023-04-15T01:17:30;93347.56;;;5.22;100.00
67434;BME280;54305;47.950;6.572;2023-04-15T01:19:56;93343.72;;;5.26;100.00
67434;BME280;54305;47.950;6.572;2023-04-15T01:22:22;93348.97;;;5.50;100.00
67434;BME280;54305;47.950;6.572;2023-04-15T01:24:54;93347.72;;;5.54;100.00
67434;BME280;54305;47.950;6.572;2023-04-15T01:27:21;93352.56;;;5.57;100.00
67434;BME280;54305;47.950;6.572;2023-04-15T01:29:46;93345.78;;;5.56;100.00
67434;BME280;54305;47.950;6.572;2023-04-15T01:32:12;93348.97;;;5.50;100.00
67434;BME280;54305;47.950;6.572;2023-04-15T01:34:37;93345.78;;;5.56;100.00
67434;BME280;54305;47.950;6.572;2023-04-15T01:37:02;93341.53;;;5.47;100.00
67434;BME280;54305;47.950;6.572;2023-04-15T01:39:30;93339.94;;;5.46;100.00
67434;BME280;54305;47.950;6.572;2023-04-15T01:41:57;93342.00;;;5.42;100.00
67434;BME280;54305;47.950;6.572;2023-04-15T01:44:23;93348.94;;;5.42;100.00
67434;BME280;54305;47.950;6.572;2023-04-15T01:46:48;93342.16;;;5.41;100.00
67434;BME280;54305;47.950;6.572;2023-04-15T01:49:13;93335.06;;;5.43;100.00
67434;BME280;54305;47.950;6.572;2023-04-15T01:51:38;93329.59;;;5.46;100.00
67434;BME280;54305;47.950;6.572;2023-04-15T01:54:04;93328.19;;;5.51;100.00
67434;BME280;54305;47.950;6.572;2023-04-15T01:56:29;93330.91;;;5.50;100.00
67434;BME280;54305;47.950;6.572;2023-04-15T01:58:54;93315.56;;;5.48;100.00
67434;BME280;54305;47.950;6.572;2023-04-15T02:01:19;93317.34;;;5.48;100.00
67434;BME280;54305;47.950;6.572;2023-04-15T02:03:46;93318.97;;;5.49;100.00
67434;BME280;54305;47.950;6.572;2023-04-15T02:06:11;93321.06;;;5.53;100.00
67434;BME280;54305;47.950;6.572;2023-04-15T02:08:37;93313.81;;;5.49;100.00
67434;BME280;54305;47.950;6.572;2023-04-15T02:11:02;93308.31;;;5.52;100.00
67434;BME280;54305;47.950;6.572;2023-04-15T02:13:28;93301.25;;;5.54;100.00
67434;BME280;54305;47.950;6.572;2023-04-15T02:15:53;93305.78;;;5.60;100.00
67434;BME280;54305;47.950;6.572;2023-04-15T02:18:19;93295.75;;;5.57;100.00
67434;BME280;54305;47.950;6.572;2023-04-15T02:20:45;93307.69;;;5.58;100.00
67434;BME280;54305;47.950;6.572;2023-04-15T02:23:11;93292.81;;;5.52;100.00
67434;BME280;54305;47.950;6.572;2023-04-15T02:25:36;93295.44;;;5.60;100.00
67434;BME280;54305;47.950;6.572;2023-04-15T02:28:03;93302.84;;;5.63;100.00
67434;BME280;54305;47.950;6.572;2023-04-15T02:30:29;93302.22;;;5.61;100.00
67434;BME280;54305;47.950;6.572;2023-04-15T02:32:54;93297.53;;;5.64;100.00
67434;BME280;54305;47.950;6.572;2023-04-15T02:35:19;93289.94;;;5.63;100.00
67434;BME280;54305;47.950;6.572;2023-04-15T02:37:45;93297.06;;;5.61;100.00
67434;BME280;54305;47.950;6.572;2023-04-15T02:40:10;93295.44;;;5.60;100.00
67434;BME280;54305;47.950;6.572;2023-04-15T02:42:37;93292.88;;;5.68;100.00
67434;BME280;54305;47.950;6.572;2023-04-15T02:45:02;93294.81;;;5.66;100.00
67434;BME280;54305;47.950;6.572;2023-04-15T02:47:27;93299.97;;;5.66;100.00
67434;BME280;54305;47.950;6.572;2023-04-15T02:49:53;93308.69;;;5.65;100.00
67434;BME280;54305;47.950;6.572;2023-04-15T02:52:18;93298.34;;;5.65;100.00
67434;BME280;54305;47.950;6.572;2023-04-15T02:54:43;93300.31;;;5.71;100.00
67434;BME280;54305;47.950;6.572;2023-04-15T02:57:08;93307.56;;;5.67;100.00
67434;BME280;54305;47.950;6.572;2023-04-15T02:59:35;93299.66;;;5.69;100.00
67434;BME280;54305;47.950;6.572;2023-04-15T03:02:01;93307.09;;;5.64;100.00
67434;BME280;54305;47.950;6.572;2023-04-15T03:04:26;93304.78;;;5.61;100.00
67434;BME280;54305;47.950;6.572;2023-04-15T03:06:54;93305.97;;;5.66;100.00
67434;BME280;54305;47.950;6.572;2023-04-15T03:09:19;93306.75;;;5.67;100.00
67434;BME280;54305;47.950;6.572;2023-04-15T03:11:44;93301.91;;;5.72;100.00
67434;BME280;54305;47.950;6.572;2023-04-15T03:14:10;93295.63;;;5.66;100.00
67434;BME280;54305;47.950;6.572;2023-04-15T03:16:37;93295.78;;;5.65;100.00
67434;BME280;54305;47.950;6.572;2023-04-15T03:19:05;93296.22;;;5.60;100.00
67434;BME280;54305;47.950;6.572;2023-04-15T03:21:30;93292.88;;;5.68;100.00
67434;BME280;54305;47.950;6.572;2023-04-15T03:23:55;93293.19;;;5.65;100.00
67434;BME280;54305;47.950;6.572;2023-04-15T03:26:27;93297.38;;;5.66;100.00
67434;BME280;54305;47.950;6.572;2023-04-15T03:28:53;93295.09;;;5.63;100.00
67434;BME280;54305;47.950;6.572;2023-04-15T03:31:19;93290.13;;;5.69;100.00
67434;BME280;54305;47.950;6.572;2023-04-15T03:33:44;93289.00;;;5.64;100.00
67434;BME280;54305;47.950;6.572;2023-04-15T03:36:09;93282.88;;;5.65;100.00
67434;BME280;54305;47.950;6.572;2023-04-15T03:38:34;93285.59;;;5.63;100.00
67434;BME280;54305;47.950;6.572;2023-04-15T03:41:00;93283.66;;;5.65;100.00
67434;BME280;54305;47.950;6.572;2023-04-15T03:43:25;93293.50;;;5.62;100.00
67434;BME280;54305;47.950;6.572;2023-04-15T03:45:51;93284.28;;;5.59;100.00
67434;BME280;54305;47.950;6.572;2023-04-15T03:48:16;93287.66;;;5.52;100.00
67434;BME280;54305;47.950;6.572;2023-04-15T03:50:41;93292.53;;;5.55;100.00
67434;BME280;54305;47.950;6.572;2023-04-15T03:53:07;93283.50;;;5.59;100.00
67434;BME280;54305;47.950;6.572;2023-04-15T03:55:32;93281.56;;;5.61;100.00
67434;BME280;54305;47.950;6.572;2023-04-15T03:57:57;93278.50;;;5.65;100.00
67434;BME280;54305;47.950;6.572;2023-04-15T04:00:22;93278.00;;;5.62;100.00
67434;BME280;54305;47.950;6.572;2023-04-15T04:02:47;93280.28;;;5.65;100.00
67434;BME280;54305;47.950;6.572;2023-04-15T04:05:13;93277.22;;;5.61;100.00
67434;BME280;54305;47.950;6.572;2023-04-15T04:07:38;93281.25;;;5.64;100.00
67434;BME280;54305;47.950;6.572;2023-04-15T04:10:03;93288.03;;;5.65;100.00
67434;BME280;54305;47.950;6.572;2023-04-15T04:12:29;93288.81;;;5.65;100.00
67434;BME280;54305;47.950;6.572;2023-04-15T04:14:54;93282.88;;;5.65;100.00
67434;BME280;54305;47.950;6.572;2023-04-15T04:17:20;93284.00;;;5.62;100.00
67434;BME280;54305;47.950;6.572;2023-04-15T04:19:45;93279.63;;;5.63;100.00
67434;BME280;54305;47.950;6.572;2023-04-15T04:22:11;93280.09;;;5.58;100.00
67434;BME280;54305;47.950;6.572;2023-04-15T04:24:36;93285.13;;;5.60;100.00
67434;BME280;54305;47.950;6.572;2023-04-15T04:27:01;93276.41;;;5.61;100.00
67434;BME280;54305;47.950;6.572;2023-04-15T04:29:27;93284.78;;;5.63;100.00
67434;BME280;54305;47.950;6.572;2023-04-15T04:31:52;93286.09;;;5.59;100.00
67434;BME280;54305;47.950;6.572;2023-04-15T04:34:17;93283.16;;;5.62;100.00
67434;BME280;54305;47.950;6.572;2023-04-15T04:36:42;93287.06;;;5.66;100.00
67434;BME280;54305;47.950;6.572;2023-04-15T04:39:08;93282.53;;;5.68;100.00
67434;BME280;54305;47.950;6.572;2023-04-15T04:41:33;93278.81;;;5.62;100.00
67434;BME280;54305;47.950;6.572;2023-04-15T04:43:58;93283.16;;;5.62;100.00
67434;BME280;54305;47.950;6.572;2023-04-15T04:46:24;93283.50;;;5.59;100.00
67434;BME280;54305;47.950;6.572;2023-04-15T04:48:49;93276.69;;;5.58;100.00
67434;BME280;54305;47.950;6.572;2023-04-15T04:51:14;93282.88;;;5.65;100.00
67434;BME280;54305;47.950;6.572;2023-04-15T04:53:40;93292.06;;;5.67;100.00
67434;BME280;54305;47.950;6.572;2023-04-15T04:56:05;93292.06;;;5.67;100.00
67434;BME280;54305;47.950;6.572;2023-04-15T04:58:31;93289.34;;;5.69;100.00
67434;BME280;54305;47.950;6.572;2023-04-15T05:00:56;93286.41;;;5.64;100.00
67434;BME280;54305;47.950;6.572;2023-04-15T05:03:22;93287.22;;;5.64;100.00
67434;BME280;54305;47.950;6.572;2023-04-15T05:05:47;93284.47;;;5.66;100.00
67434;BME280;54305;47.950;6.572;2023-04-15T05:08:13;93291.25;;;5.67;100.00
67434;BME280;54305;47.950;6.572;2023-04-15T05:10:38;93293.22;;;5.73;100.00
67434;BME280;54305;47.950;6.572;2023-04-15T05:13:04;93291.91;;;5.77;100.00
67434;BME280;54305;47.950;6.572;2023-04-15T05:15:29;93290.66;;;5.73;100.00
67434;BME280;54305;47.950;6.572;2023-04-15T05:17:54;93296.13;;;5.70;100.00
67434;BME280;54305;47.950;6.572;2023-04-15T05:20:19;93283.22;;;5.78;100.00
67434;BME280;54305;47.950;6.572;2023-04-15T05:22:45;93292.75;;;5.77;100.00
67434;BME280;54305;47.950;6.572;2023-04-15T05:25:10;93289.03;;;5.80;100.00
67434;BME280;54305;47.950;6.572;2023-04-15T05:27:38;93281.81;;;5.83;100.00
67434;BME280;54305;47.950;6.572;2023-04-15T05:30:03;93294.41;;;5.86;100.00
67434;BME280;54305;47.950;6.572;2023-04-15T05:32:29;93288.75;;;5.91;100.00
67434;BME280;54305;47.950;6.572;2023-04-15T05:34:55;93287.44;;;5.87;100.00
67434;BME280;54305;47.950;6.572;2023-04-15T05:37:20;93286.84;;;5.93;100.00
67434;BME280;54305;47.950;6.572;2023-04-15T05:39:46;93281.34;;;5.96;100.00
67434;BME280;54305;47.950;6.572;2023-04-15T05:42:12;93279.25;;;5.99;100.00
67434;BME280;54305;47.950;6.572;2023-04-15T05:44:37;93277.78;;;5.97;100.00
67434;BME280;54305;47.950;6.572;2023-04-15T05:47:02;93276.69;;;5.99;100.00
67434;BME280;54305;47.950;6.572;2023-04-15T05:49:28;93275.56;;;6.02;100.00
67434;BME280;54305;47.950;6.572;2023-04-15T05:51:53;93276.19;;;6.04;100.00
67434;BME280;54305;47.950;6.572;2023-04-15T05:54:19;93274.09;;;6.07;100.00
67434;BME280;54305;47.950;6.572;2023-04-15T05:56:44;93281.38;;;6.12;100.00
67434;BME280;54305;47.950;6.572;2023-04-15T05:59:09;93274.88;;;6.16;100.00
67434;BME280;54305;47.950;6.572;2023-04-15T06:01:34;93272.31;;;6.16;100.00
67434;BME280;54305;47.950;6.572;2023-04-15T06:04:00;93262.47;;;6.19;100.00
67434;BME280;54305;47.950;6.572;2023-04-15T06:06:25;93271.19;;;6.18;100.00
67434;BME280;54305;47.950;6.572;2023-04-15T06:08:51;93267.78;;;6.26;100.00
67434;BME280;54305;47.950;6.572;2023-04-15T06:11:16;93275.53;;;6.26;100.00
67434;BME280;54305;47.950;6.572;2023-04-15T06:13:42;93273.63;;;6.36;100.00
67434;BME280;54305;47.950;6.572;2023-04-15T06:16:07;93272.63;;;6.45;100.00
67434;BME280;54305;47.950;6.572;2023-04-15T06:18:32;93267.16;;;6.48;100.00
67434;BME280;54305;47.950;6.572;2023-04-15T06:20:57;93280.72;;;6.50;100.00
67434;BME280;54305;47.950;6.572;2023-04-15T06:23:23;93275.53;;;6.50;100.00
67434;BME280;54305;47.950;6.572;2023-04-15T06:25:48;93280.41;;;6.53;100.00
67434;BME280;54305;47.950;6.572;2023-04-15T06:28:13;93277.81;;;6.61;100.00
67434;BME280;54305;47.950;6.572;2023-04-15T06:30:39;93281.03;;;6.63;100.00
67434;BME280;54305;47.950;6.572;2023-04-15T06:33:04;93286.84;;;6.73;100.00
67434;BME280;54305;47.950;6.572;2023-04-15T06:35:30;93281.34;;;6.76;100.00
67434;BME280;54305;47.950;6.572;2023-04-15T06:37:55;93281.50;;;6.74;100.00
67434;BME280;54305;47.950;6.572;2023-04-15T06:40:21;93285.03;;;6.81;100.00
67434;BME280;54305;47.950;6.572;2023-04-15T06:42:46;93293.00;;;6.80;100.00
67434;BME280;54305;47.950;6.572;2023-04-15T06:45:11;93292.00;;;6.89;100.00
67434;BME280;54305;47.950;6.572;2023-04-15T06:47:37;93289.53;;;6.95;100.00
67434;BME280;54305;47.950;6.572;2023-04-15T06:50:02;93283.53;;;7.03;100.00
67434;BME280;54305;47.950;6.572;2023-04-15T06:52:28;93292.59;;;7.07;100.00
67434;BME280;54305;47.950;6.572;2023-04-15T06:54:53;93300.50;;;7.13;100.00
67434;BME280;54305;47.950;6.572;2023-04-15T06:57:18;93300.03;;;7.10;100.00
67434;BME280;54305;47.950;6.572;2023-04-15T06:59:43;93300.66;;;7.12;100.00
67434;BME280;54305;47.950;6.572;2023-04-15T07:02:09;93299.72;;;7.13;100.00
67434;BME280;54305;47.950;6.572;2023-04-15T07:04:36;93295.81;;;7.17;100.00
67434;BME280;54305;47.950;6.572;2023-04-15T07:07:01;93306.16;;;7.17;100.00
67434;BME280;54305;47.950;6.572;2023-04-15T07:09:27;93299.06;;;7.19;100.00
67434;BME280;54305;47.950;6.572;2023-04-15T07:11:52;93297.38;;;7.34;100.00
67434;BME280;54305;47.950;6.572;2023-04-15T07:14:17;93302.50;;;7.50;100.00
67434;BME280;54305;47.950;6.572;2023-04-15T07:16:42;93296.31;;;7.59;100.00
67434;BME280;54305;47.950;6.572;2023-04-15T07:19:08;93299.53;;;7.61;100.00
67434;BME280;54305;47.950;6.572;2023-04-15T07:21:33;93305.97;;;7.73;100.00
67434;BME280;54305;47.950;6.572;2023-04-15T07:23:58;93306.25;;;7.78;100.00
67434;BME280;54305;47.950;6.572;2023-04-15T07:26:23;93304.28;;;7.80;100.00
67434;BME280;54305;47.950;6.572;2023-04-15T07:28:49;93304.56;;;7.93;100.00
67434;BME280;54305;47.950;6.572;2023-04-15T07:31:14;93308.47;;;7.89;100.00
67434;BME280;54305;47.950;6.572;2023-04-15T07:33:40;93301.66;;;7.88;100.00
67434;BME280;54305;47.950;6.572;2023-04-15T07:36:06;93300.53;;;7.90;100.00
67434;BME280;54305;47.950;6.572;2023-04-15T07:38:31;93306.88;;;7.80;100.00
67434;BME280;54305;47.950;6.572;2023-04-15T07:40:56;93305.94;;;7.81;100.00
67434;BME280;54305;47.950;6.572;2023-04-15T07:43:22;93313.56;;;7.74;100.00
67434;BME280;54305;47.950;6.572;2023-04-15T07:45:47;93318.22;;;7.79;100.00
67434;BME280;54305;47.950;6.572;2023-04-15T07:48:12;93306.16;;;7.94;100.00
67434;BME280;54305;47.950;6.572;2023-04-15T07:50:38;93313.91;;;8.02;100.00
67434;BME280;54305;47.950;6.572;2023-04-15T07:53:03;93310.59;;;8.16;100.00
67434;BME280;54305;47.950;6.572;2023-04-15T07:55:29;93315.72;;;8.24;100.00
67434;BME280;54305;47.950;6.572;2023-04-15T07:57:55;93314.41;;;8.28;100.00
67434;BME280;54305;47.950;6.572;2023-04-15T08:00:20;93317.88;;;8.43;100.00
67434;BME280;54305;47.950;6.572;2023-04-15T08:02:45;93322.03;;;8.52;100.00
67434;BME280;54305;47.950;6.572;2023-04-15T08:05:12;93323.16;;;8.72;100.00
67434;BME280;54305;47.950;6.572;2023-04-15T08:07:38;93320.53;;;8.80;100.00
67434;BME280;54305;47.950;6.572;2023-04-15T08:10:03;93325.94;;;8.93;100.00
67434;BME280;54305;47.950;6.572;2023-04-15T08:12:29;93324.88;;;9.02;100.00
67434;BME280;54305;47.950;6.572;2023-04-15T08:14:54;93322.09;;;9.03;100.00
67434;BME280;54305;47.950;6.572;2023-04-15T08:17:20;93333.91;;;9.06;100.00
67434;BME280;54305;47.950;6.572;2023-04-15T08:19:45;93328.81;;;8.98;100.00
67434;BME280;54305;47.950;6.572;2023-04-15T08:22:12;93337.66;;;9.03;100.00
67434;BME280;54305;47.950;6.572;2023-04-15T08:24:37;93338.47;;;9.04;100.00
67434;BME280;54305;47.950;6.572;2023-04-15T08:27:03;93340.81;;;8.99;100.00
67434;BME280;54305;47.950;6.572;2023-04-15T08:29:29;93339.31;;;8.82;100.00
67434;BME280;54305;47.950;6.572;2023-04-15T08:31:54;93342.31;;;8.71;100.00
67434;BME280;54305;47.950;6.572;2023-04-15T08:34:20;93350.06;;;8.56;100.00
67434;BME280;54305;47.950;6.572;2023-04-15T08:36:47;93354.78;;;8.53;100.00
67434;BME280;54305;47.950;6.572;2023-04-15T08:39:12;93350.66;;;8.44;100.00
67434;BME280;54305;47.950;6.572;2023-04-15T08:44:09;93358.34;;;8.52;100.00
67434;BME280;54305;47.950;6.572;2023-04-15T08:46:35;93364.69;;;8.72;100.00
67434;BME280;54305;47.950;6.572;2023-04-15T08:49:02;93362.09;;;8.72;100.00
67434;BME280;54305;47.950;6.572;2023-04-15T08:51:28;93368.19;;;8.87;100.00
67434;BME280;54305;47.950;6.572;2023-04-15T08:53:53;93364.34;;;8.97;100.00
67434;BME280;54305;47.950;6.572;2023-04-15T08:56:18;93366.06;;;9.05;100.00
67434;BME280;54305;47.950;6.572;2023-04-15T08:58:46;93368.81;;;9.26;100.00
67434;BME280;54305;47.950;6.572;2023-04-15T09:01:12;93364.59;;;9.54;100.00
67434;BME280;54305;47.950;6.572;2023-04-15T09:03:38;93373.50;;;9.74;100.00
67434;BME280;54305;47.950;6.572;2023-04-15T09:06:04;93371.19;;;10.08;100.00
67434;BME280;54305;47.950;6.572;2023-04-15T09:08:30;93371.53;;;10.05;100.00
67434;BME280;54305;47.950;6.572;2023-04-15T09:10:55;93387.03;;;9.98;100.00
67434;BME280;54305;47.950;6.572;2023-04-15T09:13:20;93384.25;;;9.71;100.00
67434;BME280;54305;47.950;6.572;2023-04-15T09:15:46;93389.25;;;9.87;100.00
67434;BME280;54305;47.950;6.572;2023-04-15T09:18:11;93398.50;;;9.89;100.00
67434;BME280;54305;47.950;6.572;2023-04-15T09:20:40;93399.13;;;9.77;100.00
67434;BME280;54305;47.950;6.572;2023-04-15T09:23:13;93409.53;;;9.77;100.00
67434;BME280;54305;47.950;6.572;2023-04-15T09:25:39;93406.59;;;9.80;100.00
67434;BME280;54305;47.950;6.572;2023-04-15T09:28:06;93402.97;;;9.95;100.00
67434;BME280;54305;47.950;6.572;2023-04-15T09:30:31;93411.34;;;10.20;100.00
67434;BME280;54305;47.950;6.572;2023-04-15T09:32:57;93412.88;;;10.29;100.00
67434;BME280;54305;47.950;6.572;2023-04-15T09:35:26;93412.91;;;10.50;100.00
67434;BME280;54305;47.950;6.572;2023-04-15T09:38:00;93415.41;;;10.58;100.00
67434;BME280;54305;47.950;6.572;2023-04-15T09:40:39;93412.63;;;10.59;100.00
67434;BME280;54305;47.950;6.572;2023-04-15T09:43:05;93412.97;;;10.92;100.00
67434;BME280;54305;47.950;6.572;2023-04-15T09:45:31;93421.03;;;11.39;100.00
67434;BME280;54305;47.950;6.572;2023-04-15T09:47:57;93418.09;;;11.69;100.00
67434;BME280;54305;47.950;6.572;2023-04-15T09:50:23;93421.72;;;11.75;100.00
67434;BME280;54305;47.950;6.572;2023-04-15T09:52:51;93424.72;;;11.72;100.00
67434;BME280;54305;47.950;6.572;2023-04-15T09:55:16;93429.25;;;11.63;100.00
67434;BME280;54305;47.950;6.572;2023-04-15T09:57:42;93430.75;;;11.51;100.00
67434;BME280;54305;47.950;6.572;2023-04-15T10:00:08;93434.28;;;11.65;100.00
67434;BME280;54305;47.950;6.572;2023-04-15T10:02:35;93439.88;;;11.62;100.00
67434;BME280;54305;47.950;6.572;2023-04-15T10:05:01;93441.88;;;11.60;100.00
67434;BME280;54305;47.950;6.572;2023-04-15T10:07:26;93448.56;;;11.27;100.00
67434;BME280;54305;47.950;6.572;2023-04-15T10:09:52;93448.72;;;11.19;100.00
67434;BME280;54305;47.950;6.572;2023-04-15T10:12:18;93452.78;;;11.07;100.00
67434;BME280;54305;47.950;6.572;2023-04-15T10:14:43;93448.19;;;10.88;100.00
67434;BME280;54305;47.950;6.572;2023-04-15T10:17:12;93459.69;;;10.79;100.00
67434;BME280;54305;47.950;6.572;2023-04-15T10:19:38;93459.19;;;10.69;100.00
67434;BME280;54305;47.950;6.572;2023-04-15T10:22:04;93470.56;;;10.47;100.00
67434;BME280;54305;47.950;6.572;2023-04-15T10:24:30;93470.56;;;10.32;100.00
67434;BME280;54305;47.950;6.572;2023-04-15T10:26:56;93475.22;;;10.37;100.00
67434;BME280;54305;47.950;6.572;2023-04-15T10:29:22;93476.72;;;10.17;100.00
67434;BME280;54305;47.950;6.572;2023-04-15T10:31:49;93478.94;;;9.91;100.00
67434;BME280;54305;47.950;6.572;2023-04-15T10:34:15;93483.91;;;10.00;100.00
67434;BME280;54305;47.950;6.572;2023-04-15T10:36:41;93483.06;;;10.00;100.00
67434;BME280;54305;47.950;6.572;2023-04-15T10:39:37;93492.31;;;10.02;100.00
67434;BME280;54305;47.950;6.572;2023-04-15T10:44:38;93491.19;;;10.19;100.00
67434;BME280;54305;47.950;6.572;2023-04-15T10:47:15;93492.28;;;10.25;100.00
67434;BME280;54305;47.950;6.572;2023-04-15T10:49:45;93497.75;;;10.30;100.00
67434;BME280;54305;47.950;6.572;2023-04-15T10:52:10;93502.13;;;10.44;100.00
67434;BME280;54305;47.950;6.572;2023-04-15T10:54:36;93508.94;;;10.45;100.00
67434;BME280;54305;47.950;6.572;2023-04-15T10:59:38;93514.25;;;10.08;100.00
67434;BME280;54305;47.950;6.572;2023-04-15T11:02:17;93520.97;;;10.17;100.00
67434;BME280;54305;47.950;6.572;2023-04-15T11:04:57;93526.78;;;10.04;100.00
67434;BME280;54305;47.950;6.572;2023-04-15T11:07:32;93536.66;;;10.09;100.00
67434;BME280;54305;47.950;6.572;2023-04-15T11:09:58;93532.66;;;9.98;100.00
67434;BME280;54305;47.950;6.572;2023-04-15T11:12:31;93538.69;;;9.99;100.00
67434;BME280;54305;47.950;6.572;2023-04-15T11:14:57;93538.69;;;9.99;100.00
67434;BME280;54305;47.950;6.572;2023-04-15T11:17:26;93543.91;;;9.99;100.00
67434;BME280;54305;47.950;6.572;2023-04-15T11:19:52;93552.47;;;9.85;100.00
67434;BME280;54305;47.950;6.572;2023-04-15T11:22:17;93550.94;;;9.90;100.00
67434;BME280;54305;47.950;6.572;2023-04-15T11:24:46;93553.47;;;9.98;100.00
67434;BME280;54305;47.950;6.572;2023-04-15T11:27:21;93552.69;;;9.98;100.00
67434;BME280;54305;47.950;6.572;2023-04-15T11:29:47;93556.84;;;10.07;100.00
67434;BME280;54305;47.950;6.572;2023-04-15T11:32:12;93560.53;;;10.12;100.00
67434;BME280;54305;47.950;6.572;2023-04-15T11:34:37;93567.13;;;9.78;100.00
67434;BME280;54305;47.950;6.572;2023-04-15T11:37:03;93564.16;;;10.03;100.00
67434;BME280;54305;47.950;6.572;2023-04-15T11:39:29;93570.59;;;10.30;100.00
67434;BME280;54305;47.950;6.572;2023-04-15T11:41:54;93577.50;;;10.37;100.00
67434;BME280;54305;47.950;6.572;2023-04-15T11:44:20;93571.06;;;10.48;100.00
67434;BME280;54305;47.950;6.572;2023-04-15T11:46:45;93576.06;;;10.35;100.00
67434;BME280;54305;47.950;6.572;2023-04-15T11:49:10;93580.31;;;10.50;100.00
67434;BME280;54305;47.950;6.572;2023-04-15T11:51:36;93586.03;;;10.46;100.00
67434;BME280;54305;47.950;6.572;2023-04-15T11:54:01;93591.63;;;10.43;100.00
67434;BME280;54305;47.950;6.572;2023-04-15T11:56:27;93605.47;;;10.21;100.00
67434;BME280;54305;47.950;6.572;2023-04-15T11:58:53;93608.34;;;10.11;100.00
67434;BME280;54305;47.950;6.572;2023-04-15T12:01:29;93612.09;;;10.09;100.00
67434;BME280;54305;47.950;6.572;2023-04-15T12:03:54;93609.69;;;10.07;100.00
67434;BME280;54305;47.950;6.572;2023-04-15T12:06:24;93616.53;;;10.23;100.00
67434;BME280;54305;47.950;6.572;2023-04-15T12:11:15;93615.66;;;10.45;100.00
67434;BME280;54305;47.950;6.572;2023-04-15T12:13:45;93622.34;;;10.62;100.00
67434;BME280;54305;47.950;6.572;2023-04-15T12:16:11;93621.53;;;10.76;100.00
67434;BME280;54305;47.950;6.572;2023-04-15T12:18:37;93625.75;;;10.77;100.00
67434;BME280;54305;47.950;6.572;2023-04-15T12:21:09;93631.31;;;10.88;100.00
67434;BME280;54305;47.950;6.572;2023-04-15T12:23:38;93627.91;;;11.02;100.00
67434;BME280;54305;47.950;6.572;2023-04-15T12:26:06;93634.41;;;11.42;100.00
67434;BME280;54305;47.950;6.572;2023-04-15T12:28:33;93640.66;;;11.62;100.00
67434;BME280;54305;47.950;6.572;2023-04-15T12:30:58;93631.03;;;11.98;100.00
67434;BME280;54305;47.950;6.572;2023-04-15T12:33:31;93633.38;;;11.93;100.00
67434;BME280;54305;47.950;6.572;2023-04-15T12:35:56;93634.13;;;11.87;100.00
67434;BME280;54305;47.950;6.572;2023-04-15T12:38:22;93638.75;;;12.06;100.00
67434;BME280;54305;47.950;6.572;2023-04-15T12:40:47;93649.28;;;11.98;99.43
67434;BME280;54305;47.950;6.572;2023-04-15T12:43:12;93654.03;;;10.94;100.00
67434;BME280;54305;47.950;6.572;2023-04-15T12:45:37;93656.53;;;11.81;100.00
67434;BME280;54305;47.950;6.572;2023-04-15T12:48:03;93652.59;;;11.85;100.00
67434;BME280;54305;47.950;6.572;2023-04-15T12:50:28;93655.88;;;11.94;100.00
67434;BME280;54305;47.950;6.572;2023-04-15T12:52:53;93671.31;;;11.10;100.00
67434;BME280;54305;47.950;6.572;2023-04-15T12:55:18;93664.44;;;11.09;100.00
67434;BME280;54305;47.950;6.572;2023-04-15T12:57:44;93678.97;;;10.60;100.00
67434;BME280;54305;47.950;6.572;2023-04-15T13:00:09;93684.34;;;10.44;100.00
67434;BME280;54305;47.950;6.572;2023-04-15T13:02:34;93689.09;;;10.40;100.00